createdAt,value
2022-11-27T00:01:16.639Z,11.57
2022-11-27T00:03:44.254Z,11.78
2022-11-27T00:06:15.828Z,11.60
2022-11-27T00:08:43.656Z,11.25
2022-11-27T00:11:12.109Z,11.54
2022-11-27T00:13:39.432Z,11.53
2022-11-27T00:16:06.882Z,11.57
2022-11-27T00:18:34.737Z,11.60
2022-11-27T00:21:11.721Z,11.62
2022-11-27T00:23:39.450Z,11.66
2022-11-27T00:26:07.076Z,11.81
2022-11-27T00:28:34.408Z,11.95
2022-11-27T00:31:06.477Z,11.92
2022-11-27T00:33:33.847Z,12.01
2022-11-27T00:36:04.780Z,11.99
2022-11-27T00:38:37.280Z,11.93
2022-11-27T00:41:09.384Z,12.13
2022-11-27T00:43:43.965Z,12.18
2022-11-27T00:46:13.096Z,12.25
2022-11-27T00:48:40.791Z,12.27
2022-11-27T00:51:08.898Z,12.08
2022-11-27T00:53:36.227Z,12.20
2022-11-27T00:56:03.717Z,12.21
2022-11-27T00:58:30.944Z,12.21
2022-11-27T01:00:59.147Z,12.09
2022-11-27T01:03:26.896Z,12.05
2022-11-27T01:05:54.088Z,12.15
2022-11-27T01:08:21.566Z,12.10
2022-11-27T01:10:54.893Z,12.11
2022-11-27T01:13:26.387Z,12.11
2022-11-27T01:16:03.111Z,11.76
2022-11-27T01:18:30.485Z,11.68
2022-11-27T01:20:58.053Z,11.78
2022-11-27T01:23:25.410Z,11.86
2022-11-27T01:25:55.640Z,11.96
2022-11-27T01:28:24.084Z,11.84
2022-11-27T01:30:51.704Z,11.92
2022-11-27T01:33:19.071Z,11.88
2022-11-27T01:35:53.702Z,11.86
2022-11-27T01:38:21.483Z,11.88
2022-11-27T01:40:49.091Z,11.81
2022-11-27T01:43:16.436Z,11.65
2022-11-27T01:45:44.284Z,11.70
2022-11-27T01:48:11.938Z,11.62
2022-11-27T01:50:39.246Z,11.69
2022-11-27T01:53:07.916Z,11.71
2022-11-27T01:55:43.279Z,11.66
2022-11-27T01:58:11.532Z,11.58
2022-11-27T02:00:39.173Z,11.58
2022-11-27T02:03:06.874Z,11.60
2022-11-27T02:05:34.365Z,11.59
2022-11-27T02:08:03.490Z,11.56
2022-11-27T02:10:42.996Z,11.57
2022-11-27T02:13:13.269Z,11.45
2022-11-27T02:16:17.828Z,11.48
2022-11-27T02:18:56.260Z,11.46
2022-11-27T02:21:29.681Z,11.50
2022-11-27T02:24:29.647Z,11.48
2022-11-27T02:27:26.361Z,11.56
2022-11-27T02:29:54.897Z,11.57
2022-11-27T02:32:25.024Z,11.47
2022-11-27T02:34:57.572Z,11.50
2022-11-27T02:37:31.324Z,11.60
2022-11-27T02:40:02.958Z,11.62
2022-11-27T02:42:31.768Z,11.58
2022-11-27T02:45:00.364Z,11.48
2022-11-27T02:47:28.413Z,11.62
2022-11-27T02:49:57.157Z,11.61
2022-11-27T02:52:27.426Z,11.62
2022-11-27T02:54:55.560Z,11.46
2022-11-27T02:57:23.441Z,11.37
2022-11-27T02:59:50.618Z,11.57
2022-11-27T03:02:20.257Z,11.35
2022-11-27T03:04:49.504Z,11.52
2022-11-27T03:07:18.477Z,11.54
2022-11-27T03:09:46.999Z,11.52
2022-11-27T03:12:14.497Z,11.42
2022-11-27T03:14:42.086Z,11.11
2022-11-27T03:17:28.146Z,11.33
2022-11-27T03:20:00.240Z,11.28
2022-11-27T03:22:28.042Z,11.15
2022-11-27T03:24:55.632Z,11.29
2022-11-27T03:27:32.898Z,11.27
2022-11-27T03:30:01.250Z,11.26
2022-11-27T03:32:28.675Z,11.16
2022-11-27T03:34:55.850Z,11.14
2022-11-27T03:37:23.445Z,11.20
2022-11-27T03:39:51.044Z,11.19
2022-11-27T03:42:28.783Z,11.11
2022-11-27T03:45:14.622Z,10.86
2022-11-27T03:47:54.051Z,10.91
2022-11-27T03:50:40.455Z,10.90
2022-11-27T03:53:19.940Z,10.92
2022-11-27T03:56:10.026Z,11.04
2022-11-27T03:58:40.539Z,11.04
2022-11-27T04:01:09.199Z,10.93
2022-11-27T04:03:36.947Z,11.09
2022-11-27T04:06:04.386Z,11.06
2022-11-27T04:08:31.576Z,11.08
2022-11-27T04:10:59.032Z,11.05
2022-11-27T04:13:26.216Z,11.04
2022-11-27T04:15:53.522Z,10.99
2022-11-27T04:18:21.092Z,11.00
2022-11-27T04:20:48.293Z,10.82
2022-11-27T04:23:15.541Z,10.98
2022-11-27T04:25:43.041Z,10.79
2022-11-27T04:28:10.219Z,10.86
2022-11-27T04:30:37.479Z,10.70
2022-11-27T04:33:05.033Z,10.70
2022-11-27T04:35:32.277Z,10.67
2022-11-27T04:37:59.574Z,10.56
2022-11-27T04:40:27.213Z,10.67
2022-11-27T04:42:54.498Z,10.53
2022-11-27T04:45:21.667Z,10.61
2022-11-27T04:47:49.131Z,10.68
2022-11-27T04:50:16.338Z,10.67
2022-11-27T04:52:43.591Z,10.80
2022-11-27T04:55:11.028Z,10.49
2022-11-27T04:57:38.240Z,10.55
2022-11-27T05:00:05.980Z,10.12
2022-11-27T05:02:33.505Z,10.53
2022-11-27T05:05:00.701Z,10.64
2022-11-27T05:07:28.006Z,10.65
2022-11-27T05:09:55.567Z,10.76
2022-11-27T05:12:22.792Z,10.85
2022-11-27T05:14:50.071Z,10.59
2022-11-27T05:17:17.584Z,10.77
2022-11-27T05:19:44.756Z,10.85
2022-11-27T05:22:11.958Z,10.92
2022-11-27T05:24:39.616Z,10.66
2022-11-27T05:27:06.981Z,10.71
2022-11-27T05:29:34.322Z,10.81
2022-11-27T05:32:01.804Z,10.76
2022-11-27T05:34:29.024Z,10.78
2022-11-27T05:36:56.225Z,10.82
2022-11-27T05:39:23.915Z,10.79
2022-11-27T05:41:51.111Z,10.82
2022-11-27T05:44:18.307Z,10.84
2022-11-27T05:46:45.884Z,10.85
2022-11-27T05:49:13.820Z,10.65
2022-11-27T05:51:41.971Z,10.83
2022-11-27T05:54:11.622Z,10.89
2022-11-27T05:56:38.890Z,10.93
2022-11-27T05:59:06.098Z,10.92
2022-11-27T06:01:33.609Z,10.91
2022-11-27T06:04:01.153Z,10.89
2022-11-27T06:06:28.475Z,10.55
2022-11-27T06:08:55.695Z,10.56
2022-11-27T06:11:23.667Z,10.86
2022-11-27T06:13:50.882Z,10.79
2022-11-27T06:16:22.246Z,10.56
2022-11-27T06:18:51.090Z,10.63
2022-11-27T06:21:18.495Z,10.84
2022-11-27T06:23:45.886Z,10.84
2022-11-27T06:26:17.431Z,10.95
2022-11-27T06:28:44.900Z,10.97
2022-11-27T06:31:17.855Z,10.99
2022-11-27T06:33:46.164Z,10.89
2022-11-27T06:36:13.673Z,10.88
2022-11-27T06:38:40.890Z,10.80
2022-11-27T06:41:08.971Z,10.85
2022-11-27T06:43:36.488Z,10.92
2022-11-27T06:46:04.467Z,10.86
2022-11-27T06:48:32.109Z,10.88
2022-11-27T06:51:00.752Z,10.94
2022-11-27T06:53:28.425Z,11.01
2022-11-27T06:55:55.810Z,10.99
2022-11-27T06:58:27.781Z,10.98
2022-11-27T07:00:59.057Z,10.90
2022-11-27T07:03:26.702Z,10.87
2022-11-27T07:05:54.167Z,11.18
2022-11-27T07:08:22.287Z,11.11
2022-11-27T07:10:49.818Z,11.35
2022-11-27T07:13:17.048Z,11.29
2022-11-27T07:15:44.306Z,11.51
2022-11-27T07:18:11.933Z,11.62
2022-11-27T07:20:39.133Z,11.69
2022-11-27T07:23:06.382Z,11.61
2022-11-27T07:25:33.852Z,11.69
2022-11-27T07:28:01.888Z,11.80
2022-11-27T07:30:29.150Z,11.94
2022-11-27T07:32:56.648Z,11.79
2022-11-27T07:35:23.884Z,11.86
2022-11-27T07:37:51.028Z,12.02
2022-11-27T07:40:18.608Z,11.98
2022-11-27T07:42:45.820Z,12.09
2022-11-27T07:45:13.035Z,11.98
2022-11-27T07:47:40.523Z,11.92
2022-11-27T07:50:08.525Z,12.32
2022-11-27T07:52:41.154Z,12.50
2022-11-27T07:55:09.988Z,12.50
2022-11-27T07:57:37.210Z,11.89
2022-11-27T08:00:05.087Z,12.46
2022-11-27T08:02:32.122Z,12.54
2022-11-27T08:04:59.710Z,12.54
2022-11-27T08:07:27.755Z,12.68
2022-11-27T08:09:54.967Z,12.70
2022-11-27T08:12:23.218Z,12.59
2022-11-27T08:14:50.558Z,12.53
2022-11-27T08:17:17.766Z,12.87
2022-11-27T08:19:45.266Z,12.94
2022-11-27T08:22:13.084Z,12.85
2022-11-27T08:24:42.530Z,12.85
2022-11-27T08:27:10.430Z,12.96
2022-11-27T08:29:37.980Z,12.99
2022-11-27T08:32:05.522Z,13.06
2022-11-27T08:34:33.115Z,13.14
2022-11-27T08:37:00.346Z,13.15
2022-11-27T08:39:27.620Z,12.94
2022-11-27T08:41:55.134Z,13.14
2022-11-27T08:44:22.412Z,12.20
2022-11-27T08:46:49.685Z,11.83
2022-11-27T08:49:17.168Z,11.74
2022-11-27T08:51:44.414Z,11.93
2022-11-27T08:54:11.746Z,11.10
2022-11-27T08:56:39.223Z,11.79
2022-11-27T08:59:06.416Z,11.64
2022-11-27T09:01:33.671Z,11.17
2022-11-27T09:04:01.371Z,11.33
2022-11-27T09:06:29.523Z,11.66
2022-11-27T09:08:57.243Z,11.75
2022-11-27T09:11:24.766Z,11.98
2022-11-27T09:13:52.003Z,12.29
2022-11-27T09:16:20.135Z,12.22
2022-11-27T09:18:48.737Z,12.41
2022-11-27T09:21:16.471Z,12.37
2022-11-27T09:23:43.754Z,12.49
2022-11-27T09:26:12.563Z,12.55
2022-11-27T09:28:40.212Z,12.47
2022-11-27T09:31:08.302Z,12.43
2022-11-27T09:33:36.552Z,12.58
2022-11-27T09:36:08.081Z,12.71
2022-11-27T09:38:35.892Z,12.78
2022-11-27T09:41:07.138Z,13.07
2022-11-27T09:43:34.987Z,13.13
2022-11-27T09:46:08.303Z,13.17
2022-11-27T09:48:37.803Z,13.34
2022-11-27T09:51:14.057Z,13.52
2022-11-27T09:53:47.978Z,13.68
2022-11-27T09:56:16.561Z,13.86
2022-11-27T09:58:45.185Z,13.88
2022-11-27T10:01:16.583Z,13.96
2022-11-27T10:03:44.903Z,14.03
2022-11-27T10:06:28.096Z,14.14
2022-11-27T10:09:14.424Z,13.96
2022-11-27T10:11:48.491Z,13.63
2022-11-27T10:14:34.740Z,13.68
2022-11-27T10:17:08.271Z,13.86
2022-11-27T10:19:38.950Z,14.01
2022-11-27T10:22:21.578Z,14.17
2022-11-27T10:25:19.171Z,14.06
2022-11-27T10:27:49.382Z,14.31
2022-11-27T10:30:17.842Z,14.16
2022-11-27T10:33:01.249Z,14.30
2022-11-27T10:35:29.812Z,14.25
2022-11-27T10:37:59.744Z,14.43
2022-11-27T10:40:40.350Z,14.05
2022-11-27T10:43:07.604Z,14.41
2022-11-27T10:45:50.275Z,14.33
2022-11-27T10:48:17.564Z,14.06
2022-11-27T10:50:46.088Z,14.12
2022-11-27T10:53:33.062Z,14.37
2022-11-27T10:56:15.150Z,14.10
2022-11-27T10:58:53.109Z,13.48
2022-11-27T11:01:21.082Z,14.18
2022-11-27T11:03:48.572Z,14.08
2022-11-27T11:06:21.415Z,14.30
2022-11-27T11:09:07.098Z,14.47
2022-11-27T11:11:34.853Z,14.21
2022-11-27T11:14:02.771Z,14.48
2022-11-27T11:16:35.679Z,14.32
2022-11-27T11:19:03.466Z,13.95
2022-11-27T11:21:41.251Z,13.55
2022-11-27T11:24:28.183Z,13.50
2022-11-27T11:26:56.435Z,12.66
2022-11-27T11:29:26.911Z,12.55
2022-11-27T11:31:55.131Z,12.83
2022-11-27T11:34:29.386Z,13.21
2022-11-27T11:37:05.014Z,12.32
2022-11-27T11:39:33.763Z,12.65
2022-11-27T11:42:01.283Z,12.53
2022-11-27T11:44:33.355Z,12.48
2022-11-27T11:47:00.862Z,12.53
2022-11-27T11:49:28.366Z,12.03
2022-11-27T11:52:04.249Z,12.48
2022-11-27T11:54:31.712Z,11.81
2022-11-27T11:56:59.536Z,12.18
2022-11-27T11:59:43.765Z,11.33
2022-11-27T12:02:31.533Z,11.72
2022-11-27T12:05:06.200Z,12.54
2022-11-27T12:07:39.616Z,12.55
2022-11-27T12:10:14.471Z,12.72
2022-11-27T12:13:00.646Z,12.85
2022-11-27T12:15:32.480Z,12.49
2022-11-27T12:18:18.558Z,11.89
2022-11-27T12:21:01.203Z,12.26
2022-11-27T12:23:40.776Z,12.54
2022-11-27T12:26:14.208Z,12.29
2022-11-27T12:28:59.583Z,12.49
2022-11-27T12:31:31.574Z,12.17
2022-11-27T12:34:00.888Z,11.34
2022-11-27T12:36:48.707Z,11.29
2022-11-27T12:39:20.434Z,11.29
2022-11-27T12:42:06.613Z,11.00
2022-11-27T12:44:33.828Z,11.50
2022-11-27T12:47:10.057Z,11.72
2022-11-27T12:49:37.295Z,11.86
2022-11-27T12:52:10.509Z,11.79
2022-11-27T12:54:37.700Z,11.71
2022-11-27T12:57:07.414Z,11.71
2022-11-27T12:59:49.153Z,12.33
2022-11-27T13:02:27.863Z,12.33
2022-11-27T13:05:05.833Z,12.35
2022-11-27T13:07:45.579Z,12.77
2022-11-27T13:10:15.408Z,12.43
2022-11-27T13:12:44.861Z,12.56
2022-11-27T13:15:35.380Z,12.74
2022-11-27T13:18:22.058Z,12.47
2022-11-27T13:20:52.321Z,13.07
2022-11-27T13:23:20.666Z,12.99
2022-11-27T13:25:51.963Z,13.04
2022-11-27T13:28:36.211Z,13.34
2022-11-27T13:31:03.397Z,13.30
2022-11-27T13:33:34.163Z,13.12
2022-11-27T13:36:03.465Z,13.15
2022-11-27T13:38:33.445Z,13.07
2022-11-27T13:41:05.668Z,13.39
2022-11-27T13:43:43.220Z,12.93
2022-11-27T13:46:18.253Z,11.69
2022-11-27T13:49:05.234Z,12.19
2022-11-27T13:51:33.508Z,11.84
2022-11-27T13:54:11.069Z,12.79
2022-11-27T13:56:38.503Z,10.66
2022-11-27T13:59:24.963Z,10.83
2022-11-27T14:01:59.344Z,11.26
2022-11-27T14:04:27.486Z,11.76
2022-11-27T14:07:00.238Z,12.62
2022-11-27T14:09:57.589Z,12.50
2022-11-27T14:12:30.343Z,12.40
2022-11-27T14:15:00.770Z,11.73
2022-11-27T14:17:33.711Z,11.52
2022-11-27T14:20:05.979Z,11.94
2022-11-27T14:22:44.226Z,11.27
2022-11-27T14:25:24.156Z,11.30
2022-11-27T14:28:09.613Z,12.19
2022-11-27T14:30:47.618Z,12.12
2022-11-27T14:33:25.503Z,12.27
2022-11-27T14:35:54.453Z,11.99
2022-11-27T14:38:22.220Z,11.86
2022-11-27T14:40:49.894Z,11.96
2022-11-27T14:43:18.388Z,12.38
2022-11-27T14:45:46.778Z,12.50
2022-11-27T14:48:24.005Z,12.30
2022-11-27T14:50:52.260Z,11.49
2022-11-27T14:53:20.114Z,11.99
2022-11-27T14:55:51.312Z,12.45
2022-11-27T14:58:20.219Z,11.27
2022-11-27T15:00:51.839Z,10.36
2022-11-27T15:03:19.526Z,11.68
2022-11-27T15:05:53.636Z,10.89
2022-11-27T15:08:21.365Z,11.40
2022-11-27T15:10:48.917Z,10.07
2022-11-27T15:13:25.763Z,11.58
2022-11-27T15:16:03.999Z,11.99
2022-11-27T15:18:32.301Z,12.33
2022-11-27T15:20:59.970Z,11.61
2022-11-27T15:23:29.111Z,10.90
2022-11-27T15:25:59.327Z,10.14
2022-11-27T15:28:45.817Z,11.05
2022-11-27T15:31:32.755Z,11.95
2022-11-27T15:34:00.332Z,11.79
2022-11-27T15:36:32.414Z,11.10
2022-11-27T15:39:32.451Z,11.34
2022-11-27T15:42:00.936Z,11.33
2022-11-27T15:44:29.396Z,12.07
2022-11-27T15:46:57.108Z,12.16
2022-11-27T15:49:24.387Z,11.40
2022-11-27T15:51:52.108Z,10.96
2022-11-27T15:54:19.435Z,11.87
2022-11-27T15:56:47.882Z,12.21
2022-11-27T15:59:15.673Z,12.27
2022-11-27T16:01:43.265Z,11.01
2022-11-27T16:04:10.779Z,11.60
2022-11-27T16:06:38.366Z,11.76
2022-11-27T16:09:05.863Z,11.65
2022-11-27T16:11:33.415Z,10.68
2022-11-27T16:14:00.691Z,11.37
2022-11-27T16:16:27.977Z,11.70
2022-11-27T16:19:02.003Z,12.09
2022-11-27T16:21:30.159Z,11.64
2022-11-27T16:24:02.141Z,12.08
2022-11-27T16:26:29.742Z,11.75
2022-11-27T16:28:57.166Z,11.83
2022-11-27T16:31:25.164Z,11.73
2022-11-27T16:33:52.487Z,11.99
2022-11-27T16:36:20.543Z,12.01
2022-11-27T16:38:48.508Z,12.03
2022-11-27T16:41:17.061Z,11.69
2022-11-27T16:43:45.714Z,11.13
2022-11-27T16:46:17.381Z,11.57
2022-11-27T16:48:44.893Z,11.51
2022-11-27T16:51:20.170Z,11.88
2022-11-27T16:53:48.712Z,11.59
2022-11-27T16:56:17.475Z,11.28
2022-11-27T16:58:45.567Z,10.59
2022-11-27T17:01:14.429Z,11.53
2022-11-27T17:03:42.151Z,10.62
2022-11-27T17:06:10.653Z,10.60
2022-11-27T17:08:38.124Z,11.75
2022-11-27T17:11:09.624Z,10.54
2022-11-27T17:13:36.857Z,11.37
2022-11-27T17:16:05.065Z,11.64
2022-11-27T17:18:33.329Z,10.46
2022-11-27T17:21:02.554Z,10.33
2022-11-27T17:23:29.957Z,11.41
2022-11-27T17:25:58.259Z,11.59
2022-11-27T17:28:25.565Z,11.81
2022-11-27T17:30:52.991Z,11.50
2022-11-27T17:33:20.999Z,11.64
2022-11-27T17:35:48.335Z,11.69
2022-11-27T17:38:15.600Z,10.17
2022-11-27T17:40:43.793Z,10.96
2022-11-27T17:43:11.268Z,11.53
2022-11-27T17:45:41.918Z,10.97
2022-11-27T17:48:10.132Z,11.48
2022-11-27T17:50:37.414Z,11.51
2022-11-27T17:53:05.018Z,11.58
2022-11-27T17:55:33.063Z,10.49
2022-11-27T17:58:00.457Z,11.03
2022-11-27T18:00:28.334Z,10.66
2022-11-27T18:02:55.903Z,10.95
2022-11-27T18:05:23.965Z,11.09
2022-11-27T18:07:51.450Z,11.45
2022-11-27T18:10:19.392Z,11.43
2022-11-27T18:12:46.848Z,10.60
2022-11-27T18:15:14.449Z,11.30
2022-11-27T18:17:42.055Z,11.12
2022-11-27T18:20:09.509Z,11.27
2022-11-27T18:22:36.828Z,11.55
2022-11-27T18:25:05.055Z,11.49
2022-11-27T18:27:33.502Z,10.44
2022-11-27T18:30:00.735Z,9.50
2022-11-27T18:32:28.513Z,10.44
2022-11-27T18:34:55.767Z,10.21
2022-11-27T18:37:23.575Z,11.02
2022-11-27T18:39:51.479Z,10.93
2022-11-27T18:42:19.293Z,10.39
2022-11-27T18:44:46.766Z,11.22
2022-11-27T18:47:15.180Z,10.20
2022-11-27T18:49:43.365Z,10.90
2022-11-27T18:52:11.026Z,10.66
2022-11-27T18:54:38.736Z,10.81
2022-11-27T18:57:07.490Z,11.59
2022-11-27T18:59:34.799Z,11.64
2022-11-27T19:02:02.769Z,11.35
2022-11-27T19:04:30.128Z,11.28
2022-11-27T19:06:57.612Z,11.78
2022-11-27T19:09:25.420Z,11.50
2022-11-27T19:11:53.503Z,11.47
2022-11-27T19:14:20.758Z,11.54
2022-11-27T19:16:48.617Z,11.72
2022-11-27T19:22:07.277Z,11.30
2022-11-27T19:24:34.706Z,11.57
2022-11-27T19:27:02.040Z,11.10
2022-11-27T19:29:30.483Z,11.40
2022-11-27T19:31:58.959Z,11.11
2022-11-27T19:34:26.805Z,11.28
2022-11-27T19:36:54.617Z,11.27
2022-11-27T19:39:22.207Z,10.87
2022-11-27T19:41:49.744Z,10.64
2022-11-27T19:44:17.829Z,11.02
2022-11-27T19:46:46.455Z,11.15
2022-11-27T19:49:15.036Z,11.58
2022-11-27T19:51:42.935Z,11.47
2022-11-27T19:54:13.111Z,9.84
2022-11-27T19:56:42.257Z,10.79
2022-11-27T19:59:10.511Z,9.02
2022-11-27T20:01:40.270Z,9.84
2022-11-27T20:04:09.679Z,9.41
2022-11-27T20:06:37.084Z,10.46
2022-11-27T20:09:04.992Z,8.25
2022-11-27T20:11:35.194Z,9.10
2022-11-27T20:14:04.671Z,9.83
2022-11-27T20:16:32.969Z,10.12
2022-11-27T20:19:01.613Z,9.75
2022-11-27T20:21:28.976Z,9.93
2022-11-27T20:23:57.645Z,10.33
2022-11-27T20:26:26.173Z,10.55
2022-11-27T20:28:54.224Z,9.29
2022-11-27T20:31:24.232Z,10.17
2022-11-27T20:33:52.476Z,9.41
2022-11-27T20:36:21.318Z,9.30
2022-11-27T20:38:49.281Z,8.45
2022-11-27T20:41:17.888Z,10.23
2022-11-27T20:43:45.305Z,10.85
2022-11-27T20:46:13.668Z,10.50
2022-11-27T20:48:41.079Z,10.73
2022-11-27T20:51:09.377Z,10.58
2022-11-27T20:53:38.015Z,10.41
2022-11-27T20:56:06.009Z,10.79
2022-11-27T20:58:37.767Z,10.59
2022-11-27T21:01:15.409Z,9.41
2022-11-27T21:03:43.482Z,10.72
2022-11-27T21:06:11.980Z,10.06
2022-11-27T21:08:39.274Z,10.76
2022-11-27T21:11:09.598Z,11.01
2022-11-27T21:13:37.426Z,11.05
2022-11-27T21:16:07.222Z,10.03
2022-11-27T21:18:34.458Z,10.28
2022-11-27T21:21:06.822Z,10.68
2022-11-27T21:23:34.109Z,10.16
2022-11-27T21:26:01.696Z,9.98
2022-11-27T21:28:30.101Z,10.54
2022-11-27T21:31:08.424Z,10.20
2022-11-27T21:33:36.400Z,10.75
2022-11-27T21:36:03.960Z,11.04
2022-11-27T21:38:31.177Z,10.15
2022-11-27T21:40:58.695Z,10.19
2022-11-27T21:43:25.941Z,10.85
2022-11-27T21:45:53.823Z,9.78
2022-11-27T21:48:21.714Z,10.22
2022-11-27T21:50:49.032Z,10.71
2022-11-27T21:53:16.999Z,10.87
2022-11-27T21:55:44.503Z,10.84
2022-11-27T21:58:12.030Z,11.16
2022-11-27T22:00:39.714Z,10.39
2022-11-27T22:03:07.162Z,10.34
2022-11-27T22:05:34.378Z,9.94
2022-11-27T22:08:01.670Z,10.95
2022-11-27T22:10:29.227Z,10.93
2022-11-27T22:12:56.590Z,11.22
2022-11-27T22:15:23.905Z,11.30
2022-11-27T22:17:51.595Z,11.40
2022-11-27T22:20:18.848Z,11.42
2022-11-27T22:22:46.807Z,11.25
2022-11-27T22:25:14.882Z,10.93
2022-11-27T22:27:42.296Z,11.35
2022-11-27T22:30:09.716Z,10.82
2022-11-27T22:32:37.384Z,10.79
2022-11-27T22:35:04.780Z,10.25
2022-11-27T22:37:32.367Z,10.98
2022-11-27T22:39:59.999Z,11.18
2022-11-27T22:42:27.240Z,11.23
2022-11-27T22:44:54.518Z,11.37
2022-11-27T22:47:22.016Z,11.51
2022-11-27T22:49:49.256Z,11.43
2022-11-27T22:52:16.688Z,11.57
2022-11-27T22:54:44.401Z,11.64
2022-11-27T22:57:13.965Z,11.64
2022-11-27T22:59:41.203Z,11.48
2022-11-27T23:02:09.676Z,11.48
2022-11-27T23:04:37.174Z,11.17
2022-11-27T23:07:04.944Z,11.40
2022-11-27T23:09:32.627Z,11.41
2022-11-27T23:11:59.818Z,11.46
2022-11-27T23:14:27.339Z,11.32
2022-11-27T23:16:54.955Z,11.39
2022-11-27T23:19:22.272Z,11.09
2022-11-27T23:21:49.563Z,11.01
2022-11-27T23:24:17.039Z,10.90
2022-11-27T23:26:44.480Z,10.88
2022-11-27T23:29:11.900Z,11.01
2022-11-27T23:31:39.564Z,10.92
2022-11-27T23:34:07.954Z,10.76
2022-11-27T23:36:35.237Z,10.92
2022-11-27T23:39:04.159Z,10.31
2022-11-27T23:41:31.373Z,10.58
2022-11-27T23:43:58.684Z,10.72
2022-11-27T23:46:26.876Z,10.76
2022-11-27T23:48:54.810Z,10.14
2022-11-27T23:51:23.663Z,10.66
2022-11-27T23:53:51.440Z,10.61
2022-11-27T23:56:21.409Z,10.82
2022-11-27T23:58:48.632Z,10.68
